createdAt,value
2023-01-27T00:00:51.634Z,98405.72
2023-01-27T00:03:19.090Z,98395.75
2023-01-27T00:05:46.577Z,98395.22
2023-01-27T00:08:14.724Z,98402.41
2023-01-27T00:10:41.833Z,98390.16
2023-01-27T00:13:27.530Z,98388.53
2023-01-27T00:15:55.459Z,98394.22
2023-01-27T00:18:23.568Z,98391.13
2023-01-27T00:21:09.618Z,98390.03
2023-01-27T00:23:55.146Z,98388.09
2023-01-27T00:26:22.234Z,98392.84
2023-01-27T00:28:49.338Z,98389.06
2023-01-27T00:31:36.465Z,98381.78
2023-01-27T00:34:10.767Z,98378.00
2023-01-27T00:36:39.304Z,98383.06
2023-01-27T00:39:07.270Z,98378.75
2023-01-27T00:41:34.986Z,98393.28
2023-01-27T00:44:02.484Z,98399.06
2023-01-27T00:46:29.797Z,98392.63
2023-01-27T00:48:57.033Z,98384.88
2023-01-27T00:51:24.471Z,98389.50
2023-01-27T00:53:51.578Z,98397.13
2023-01-27T00:56:19.232Z,98393.38
2023-01-27T00:58:46.522Z,98398.66
2023-01-27T01:01:15.871Z,98398.22
2023-01-27T01:03:43.726Z,98394.88
2023-01-27T01:06:13.213Z,98393.16
2023-01-27T01:08:40.756Z,98401.00
2023-01-27T01:11:11.478Z,98400.69
2023-01-27T01:13:38.828Z,98392.75
2023-01-27T01:16:07.706Z,98399.06
2023-01-27T01:18:35.155Z,98395.53
2023-01-27T01:21:02.762Z,98405.41
2023-01-27T01:23:29.848Z,98396.94
2023-01-27T01:25:57.430Z,98400.69
2023-01-27T01:28:25.085Z,98395.63
2023-01-27T01:30:53.072Z,98393.28
2023-01-27T01:33:20.531Z,98400.16
2023-01-27T01:35:47.598Z,98402.41
2023-01-27T01:38:15.030Z,98400.91
2023-01-27T01:40:42.763Z,98405.16
2023-01-27T01:43:15.853Z,98398.66
2023-01-27T01:45:51.519Z,98395.63
2023-01-27T01:48:23.639Z,98392.53
2023-01-27T01:50:55.267Z,98397.91
2023-01-27T01:53:29.364Z,98387.47
2023-01-27T01:56:05.299Z,98398.66
2023-01-27T01:58:32.407Z,98391.00
2023-01-27T02:00:59.637Z,98390.91
2023-01-27T02:03:28.784Z,98384.34
2023-01-27T02:05:56.194Z,98382.72
2023-01-27T02:08:29.948Z,98384.03
2023-01-27T02:10:57.722Z,98383.50
2023-01-27T02:13:24.794Z,98387.16
2023-01-27T02:15:53.360Z,98389.63
2023-01-27T02:18:20.802Z,98388.25
2023-01-27T02:20:50.491Z,98390.94
2023-01-27T02:23:45.208Z,98383.72
2023-01-27T02:26:32.193Z,98378.69
2023-01-27T02:29:03.079Z,98383.19
2023-01-27T02:31:30.416Z,98382.75
2023-01-27T02:34:14.516Z,98396.50
2023-01-27T02:36:53.514Z,98390.81
2023-01-27T02:39:22.771Z,98400.25
2023-01-27T02:41:52.223Z,98397.16
2023-01-27T02:44:19.338Z,98398.63
2023-01-27T02:46:46.415Z,98409.06
2023-01-27T02:49:14.575Z,98403.56
2023-01-27T02:51:41.926Z,98396.50
2023-01-27T02:54:09.029Z,98399.50
2023-01-27T02:56:36.148Z,98401.75
2023-01-27T02:59:03.172Z,98410.53
2023-01-27T03:01:32.894Z,98406.25
2023-01-27T03:04:00.142Z,98403.13
2023-01-27T03:06:27.204Z,98405.38
2023-01-27T03:08:54.240Z,98411.81
2023-01-27T03:11:39.661Z,98404.53
2023-01-27T03:14:07.802Z,98408.28
2023-01-27T03:16:53.535Z,98413.34
2023-01-27T03:19:21.150Z,98409.69
2023-01-27T03:21:51.070Z,98414.75
2023-01-27T03:24:18.583Z,98414.75
2023-01-27T03:26:45.748Z,98412.81
2023-01-27T03:29:31.749Z,98415.28
2023-01-27T03:31:58.916Z,98417.31
2023-01-27T03:34:26.010Z,98417.31
2023-01-27T03:37:11.524Z,98411.94
2023-01-27T03:39:57.708Z,98410.44
2023-01-27T03:42:43.033Z,98424.63
2023-01-27T03:45:29.027Z,98423.31
2023-01-27T03:47:56.061Z,98424.06
2023-01-27T03:50:37.503Z,98424.94
2023-01-27T03:53:05.598Z,98428.59
2023-01-27T03:55:35.777Z,98419.03
2023-01-27T03:58:19.138Z,98416.56
2023-01-27T04:00:49.218Z,98414.75
2023-01-27T04:03:34.706Z,98424.28
2023-01-27T04:06:24.977Z,98423.97
2023-01-27T04:08:52.057Z,98420.22
2023-01-27T04:11:37.507Z,98416.38
2023-01-27T04:14:05.818Z,98416.88
2023-01-27T04:16:34.425Z,98419.25
2023-01-27T04:19:01.596Z,98416.56
2023-01-27T04:21:28.914Z,98419.34
2023-01-27T04:23:56.393Z,98429.03
2023-01-27T04:26:23.791Z,98431.06
2023-01-27T04:28:51.140Z,98431.81
2023-01-27T04:31:18.566Z,98430.19
2023-01-27T04:33:45.699Z,98425.59
2023-01-27T04:36:12.958Z,98424.84
2023-01-27T04:38:40.003Z,98424.84
2023-01-27T04:41:07.153Z,98422.16
2023-01-27T04:43:35.487Z,98427.94
2023-01-27T04:46:02.762Z,98418.81
2023-01-27T04:48:29.920Z,98423.78
2023-01-27T04:50:57.046Z,98421.84
2023-01-27T04:53:24.118Z,98424.41
2023-01-27T04:56:02.333Z,98428.28
2023-01-27T04:58:29.432Z,98429.44
2023-01-27T05:00:56.532Z,98435.88
2023-01-27T05:03:23.852Z,98438.38
2023-01-27T05:05:51.621Z,98435.03
2023-01-27T05:08:18.686Z,98438.13
2023-01-27T05:10:45.734Z,98435.88
2023-01-27T05:13:12.810Z,98446.50
2023-01-27T05:15:39.916Z,98449.09
2023-01-27T05:18:07.005Z,98453.59
2023-01-27T05:20:34.039Z,98456.16
2023-01-27T05:23:19.846Z,98456.50
2023-01-27T05:25:46.993Z,98446.09
2023-01-27T05:28:14.055Z,98457.56
2023-01-27T05:30:41.152Z,98458.97
2023-01-27T05:33:08.423Z,98463.50
2023-01-27T05:35:35.591Z,98460.69
2023-01-27T05:38:02.862Z,98463.59
2023-01-27T05:40:30.531Z,98467.56
2023-01-27T05:42:57.573Z,98465.63
2023-01-27T05:45:24.647Z,98468.84
2023-01-27T05:47:51.837Z,98466.69
2023-01-27T05:50:19.135Z,98469.38
2023-01-27T05:52:46.377Z,98473.25
2023-01-27T05:55:14.050Z,98469.19
2023-01-27T05:57:41.281Z,98464.56
2023-01-27T06:00:08.972Z,98464.56
2023-01-27T06:02:36.073Z,98467.25
2023-01-27T06:05:03.285Z,98469.06
2023-01-27T06:07:30.412Z,98467.56
2023-01-27T06:09:57.471Z,98467.88
2023-01-27T06:12:24.500Z,98472.19
2023-01-27T06:14:51.576Z,98476.69
2023-01-27T06:17:18.657Z,98478.09
2023-01-27T06:19:45.689Z,98467.88
2023-01-27T06:22:12.726Z,98473.56
2023-01-27T06:24:39.774Z,98476.91
2023-01-27T06:27:06.833Z,98490.66
2023-01-27T06:29:33.979Z,98490.66
2023-01-27T06:32:01.212Z,98484.09
2023-01-27T06:34:28.314Z,98481.72
2023-01-27T06:36:55.363Z,98489.38
2023-01-27T06:39:22.422Z,98491.63
2023-01-27T06:41:49.937Z,98498.19
2023-01-27T06:44:17.209Z,98498.50
2023-01-27T06:46:44.366Z,98497.31
2023-01-27T06:49:11.460Z,98497.00
2023-01-27T06:51:38.572Z,98506.22
2023-01-27T06:54:05.666Z,98509.97
2023-01-27T06:56:32.713Z,98514.59
2023-01-27T06:58:59.780Z,98515.66
2023-01-27T07:01:27.636Z,98508.78
2023-01-27T07:03:54.753Z,98516.41
2023-01-27T07:06:21.876Z,98516.75
2023-01-27T07:08:50.517Z,98521.38
2023-01-27T07:11:17.800Z,98516.75
2023-01-27T07:13:44.861Z,98511.78
2023-01-27T07:16:11.931Z,98502.69
2023-01-27T07:18:39.031Z,98515.22
2023-01-27T07:21:06.137Z,98505.03
2023-01-27T07:23:33.284Z,98506.97
2023-01-27T07:26:09.834Z,98510.41
2023-01-27T07:28:42.817Z,98517.06
2023-01-27T07:31:10.060Z,98509.34
2023-01-27T07:33:37.395Z,98510.41
2023-01-27T07:36:04.531Z,98518.34
2023-01-27T07:38:31.715Z,98517.50
2023-01-27T07:40:58.761Z,98520.19
2023-01-27T07:43:26.304Z,98523.63
2023-01-27T07:45:56.679Z,98529.31
2023-01-27T07:48:23.900Z,98535.00
2023-01-27T07:50:51.181Z,98542.31
2023-01-27T07:53:18.222Z,98542.63
2023-01-27T07:55:45.298Z,98545.66
2023-01-27T07:58:12.388Z,98550.69
2023-01-27T08:00:39.567Z,98557.97
2023-01-27T08:03:06.767Z,98554.97
2023-01-27T08:05:34.753Z,98560.47
2023-01-27T08:08:03.952Z,98564.84
2023-01-27T08:10:31.486Z,98568.28
2023-01-27T08:12:58.579Z,98567.09
2023-01-27T08:15:25.653Z,98568.91
2023-01-27T08:17:56.217Z,98559.16
2023-01-27T08:20:25.325Z,98564.84
2023-01-27T08:22:52.610Z,98581.31
2023-01-27T08:25:19.983Z,98584.00
2023-01-27T08:27:50.658Z,98581.31
2023-01-27T08:30:18.539Z,98585.94
2023-01-27T08:32:45.613Z,98587.13
2023-01-27T08:35:12.668Z,98588.19
2023-01-27T08:37:39.685Z,98588.69
2023-01-27T08:40:07.186Z,98589.13
2023-01-27T08:42:34.244Z,98582.91
2023-01-27T08:45:01.335Z,98586.25
2023-01-27T08:47:28.412Z,98589.69
2023-01-27T08:49:55.507Z,98578.50
2023-01-27T08:52:23.404Z,98590.13
2023-01-27T08:54:50.483Z,98586.69
2023-01-27T08:57:17.983Z,98590.75
2023-01-27T08:59:46.165Z,98583.78
2023-01-27T09:02:13.556Z,98596.34
2023-01-27T09:04:43.850Z,98590.56
2023-01-27T09:07:11.444Z,98585.50
2023-01-27T09:09:38.520Z,98594.31
2023-01-27T09:12:05.614Z,98587.44
2023-01-27T09:14:32.670Z,98590.47
2023-01-27T09:16:59.788Z,98591.41
2023-01-27T09:19:26.895Z,98596.13
2023-01-27T09:21:54.012Z,98595.81
2023-01-27T09:24:21.153Z,98593.88
2023-01-27T09:26:48.578Z,98600.75
2023-01-27T09:29:15.645Z,98602.69
2023-01-27T09:31:42.943Z,98605.28
2023-01-27T09:34:10.085Z,98600.22
2023-01-27T09:36:41.410Z,98603.97
2023-01-27T09:39:09.291Z,98600.97
2023-01-27T09:41:57.479Z,98605.91
2023-01-27T09:44:46.329Z,98608.81
2023-01-27T09:47:40.777Z,98610.41
2023-01-27T09:50:24.468Z,98613.44
2023-01-27T09:53:23.285Z,98618.06
2023-01-27T09:55:59.608Z,98619.56
2023-01-27T09:58:56.913Z,98614.41
2023-01-27T10:02:14.919Z,98610.22
2023-01-27T10:05:02.524Z,98614.84
2023-01-27T10:07:35.945Z,98618.06
2023-01-27T10:10:12.325Z,98611.19
2023-01-27T10:13:00.998Z,98605.38
2023-01-27T10:15:46.471Z,98609.19
2023-01-27T10:18:28.800Z,98609.19
2023-01-27T10:21:06.119Z,98602.19
2023-01-27T10:23:51.890Z,98602.19
2023-01-27T10:26:24.467Z,98606.47
2023-01-27T10:28:57.797Z,98597.56
2023-01-27T10:31:34.799Z,98594.56
2023-01-27T10:34:13.583Z,98597.56
2023-01-27T10:36:47.068Z,98601.75
2023-01-27T10:39:24.148Z,98603.25
2023-01-27T10:42:02.050Z,98604.75
2023-01-27T10:44:37.859Z,98602.63
2023-01-27T10:47:23.381Z,98605.72
2023-01-27T10:49:57.002Z,98612.25
2023-01-27T10:52:36.103Z,98610.69
2023-01-27T10:55:13.341Z,98607.56
2023-01-27T10:57:45.781Z,98599.06
2023-01-27T11:00:46.229Z,98609.50
2023-01-27T11:03:17.336Z,98608.31
2023-01-27T11:05:49.494Z,98606.81
2023-01-27T11:08:19.666Z,98603.56
2023-01-27T11:11:07.332Z,98605.09
2023-01-27T11:13:34.445Z,98606.91
2023-01-27T11:16:03.015Z,98608.84
2023-01-27T11:18:32.656Z,98611.53
2023-01-27T11:21:03.764Z,98613.78
2023-01-27T11:23:34.102Z,98618.63
2023-01-27T11:26:26.412Z,98615.50
2023-01-27T11:29:00.773Z,98610.13
2023-01-27T11:31:51.698Z,98615.50
2023-01-27T11:34:25.044Z,98611.63
2023-01-27T11:36:52.530Z,98608.19
2023-01-27T11:39:20.003Z,98619.25
2023-01-27T11:41:57.712Z,98615.00
2023-01-27T11:44:28.494Z,98609.38
2023-01-27T11:46:56.090Z,98606.69
2023-01-27T11:49:28.291Z,98609.63
2023-01-27T11:52:33.847Z,98614.44
2023-01-27T11:55:15.295Z,98611.31
2023-01-27T11:57:44.849Z,98619.72
2023-01-27T12:00:20.752Z,98602.41
2023-01-27T12:02:55.417Z,98604.44
2023-01-27T12:05:30.139Z,98604.34
2023-01-27T12:08:05.112Z,98602.41
2023-01-27T12:10:35.066Z,98610.03
2023-01-27T12:13:09.954Z,98595.84
2023-01-27T12:15:38.021Z,98593.16
2023-01-27T12:18:15.199Z,98593.16
2023-01-27T12:20:45.361Z,98588.22
2023-01-27T12:23:24.879Z,98584.34
2023-01-27T12:25:57.962Z,98578.09
2023-01-27T12:28:42.302Z,98581.09
2023-01-27T12:31:18.420Z,98573.59
2023-01-27T12:33:56.740Z,98578.84
2023-01-27T12:36:24.099Z,98566.81
2023-01-27T12:38:51.921Z,98570.25
2023-01-27T12:41:27.979Z,98569.59
2023-01-27T12:44:00.742Z,98568.09
2023-01-27T12:46:29.140Z,98572.72
2023-01-27T12:49:10.153Z,98573.47
2023-01-27T12:51:48.446Z,98567.66
2023-01-27T12:54:21.731Z,98561.88
2023-01-27T12:56:50.131Z,98567.56
2023-01-27T12:59:19.010Z,98564.63
2023-01-27T13:02:01.631Z,98561.50
2023-01-27T13:04:29.149Z,98569.13
2023-01-27T13:07:07.204Z,98567.63
2023-01-27T13:10:16.630Z,98565.38
2023-01-27T13:13:02.411Z,98574.50
2023-01-27T13:15:31.151Z,98572.78
2023-01-27T13:18:13.202Z,98571.28
2023-01-27T13:20:46.589Z,98578.59
2023-01-27T13:23:21.236Z,98569.34
2023-01-27T13:26:00.901Z,98579.66
2023-01-27T13:28:53.528Z,98572.34
2023-01-27T13:31:53.515Z,98570.72
2023-01-27T13:34:49.241Z,98575.69
2023-01-27T13:37:19.014Z,98571.91
2023-01-27T13:39:54.989Z,98573.53
2023-01-27T13:42:51.766Z,98566.84
2023-01-27T13:45:22.095Z,98567.94
2023-01-27T13:47:58.869Z,98570.94
2023-01-27T13:50:31.264Z,98564.94
2023-01-27T13:52:59.636Z,98578.56
2023-01-27T13:55:51.395Z,98586.19
2023-01-27T13:58:30.257Z,98578.47
2023-01-27T14:01:18.029Z,98590.59
2023-01-27T14:04:06.891Z,98588.41
2023-01-27T14:06:52.516Z,98592.50
2023-01-27T14:09:44.866Z,98596.69
2023-01-27T14:12:34.223Z,98592.50
2023-01-27T14:15:27.390Z,98596.69
2023-01-27T14:17:56.812Z,98602.38
2023-01-27T14:20:38.666Z,98602.81
2023-01-27T14:23:44.529Z,98603.13
2023-01-27T14:26:37.801Z,98604.63
2023-01-27T14:29:38.272Z,98609.91
2023-01-27T14:32:11.046Z,98600.66
2023-01-27T14:34:53.386Z,98599.91
2023-01-27T14:37:28.745Z,98597.53
2023-01-27T14:40:17.853Z,98602.03
2023-01-27T14:43:03.212Z,98604.91
2023-01-27T14:45:36.899Z,98606.72
2023-01-27T14:48:29.416Z,98597.91
2023-01-27T14:51:07.449Z,98602.53
2023-01-27T14:53:51.964Z,98608.34
2023-01-27T14:56:22.105Z,98617.19
2023-01-27T14:59:23.006Z,98614.50
2023-01-27T15:02:03.072Z,98616.34
2023-01-27T15:04:45.007Z,98622.03
2023-01-27T15:07:38.850Z,98626.97
2023-01-27T15:10:27.649Z,98623.81
2023-01-27T15:12:57.304Z,98632.22
2023-01-27T15:15:36.764Z,98633.22
2023-01-27T15:18:22.326Z,98638.41
2023-01-27T15:21:02.570Z,98642.91
2023-01-27T15:23:38.608Z,98641.09
2023-01-27T15:26:07.592Z,98640.66
2023-01-27T15:28:38.849Z,98634.41
2023-01-27T15:31:15.076Z,98636.34
2023-01-27T15:33:48.383Z,98642.59
2023-01-27T15:36:29.894Z,98650.13
2023-01-27T15:39:09.096Z,98653.34
2023-01-27T15:42:16.454Z,98654.09
2023-01-27T15:44:59.828Z,98653.34
2023-01-27T15:47:29.911Z,98652.59
2023-01-27T15:50:19.916Z,98650.78
2023-01-27T15:52:49.195Z,98648.53
2023-01-27T15:55:34.457Z,98642.28
2023-01-27T15:58:10.271Z,98650.34
2023-01-27T16:00:39.520Z,98650.22
2023-01-27T16:03:22.659Z,98651.72
2023-01-27T16:05:52.217Z,98645.59
2023-01-27T16:08:20.053Z,98650.66
2023-01-27T16:10:47.199Z,98651.31
2023-01-27T16:13:30.208Z,98655.50
2023-01-27T16:16:18.874Z,98660.13
2023-01-27T16:18:49.375Z,98656.25
2023-01-27T16:21:49.668Z,98659.69
2023-01-27T16:24:25.091Z,98663.88
2023-01-27T16:27:08.733Z,98669.59
2023-01-27T16:29:42.550Z,98665.38
2023-01-27T16:32:21.002Z,98668.84
2023-01-27T16:34:55.757Z,98665.19
2023-01-27T16:37:28.355Z,98664.03
2023-01-27T16:40:15.029Z,98664.88
2023-01-27T16:43:03.362Z,98670.16
2023-01-27T16:45:40.558Z,98671.53
2023-01-27T16:48:27.867Z,98673.91
2023-01-27T16:51:06.257Z,98673.25
2023-01-27T16:53:33.444Z,98677.47
2023-01-27T16:56:03.639Z,98677.88
2023-01-27T16:58:45.553Z,98670.25
2023-01-27T17:01:27.269Z,98676.06
2023-01-27T17:04:00.640Z,98681.47
2023-01-27T17:06:30.862Z,98675.75
2023-01-27T17:08:58.009Z,98676.06
2023-01-27T17:11:29.017Z,98673.69
2023-01-27T17:14:03.819Z,98677.03
2023-01-27T17:16:42.313Z,98671.22
2023-01-27T17:19:24.188Z,98677.34
2023-01-27T17:22:04.239Z,98678.41
2023-01-27T17:24:33.760Z,98676.59
2023-01-27T17:27:01.760Z,98670.47
2023-01-27T17:29:35.729Z,98675.09
2023-01-27T17:32:04.459Z,98675.41
2023-01-27T17:34:32.632Z,98678.84
2023-01-27T17:37:31.643Z,98679.91
2023-01-27T17:40:01.058Z,98679.50
2023-01-27T17:42:32.799Z,98687.88
2023-01-27T17:45:27.653Z,98696.41
2023-01-27T17:47:58.401Z,98688.72
2023-01-27T17:50:30.723Z,98693.72
2023-01-27T17:53:00.168Z,98689.94
2023-01-27T17:55:29.774Z,98695.31
2023-01-27T17:58:05.099Z,98691.56
2023-01-27T18:00:35.511Z,98691.13
2023-01-27T18:03:05.058Z,98697.69
2023-01-27T18:05:32.974Z,98691.44
2023-01-27T18:08:00.615Z,98702.53
2023-01-27T18:10:38.019Z,98700.91
2023-01-27T18:13:20.082Z,98699.84
2023-01-27T18:15:49.452Z,98698.34
2023-01-27T18:18:19.346Z,98693.25
2023-01-27T18:21:11.232Z,98687.97
2023-01-27T18:23:48.271Z,98694.47
2023-01-27T18:26:25.043Z,98693.72
2023-01-27T18:28:57.263Z,98706.06
2023-01-27T18:31:26.389Z,98704.25
2023-01-27T18:34:00.544Z,98705.44
2023-01-27T18:36:35.503Z,98717.41
2023-01-27T18:39:04.524Z,98713.22
2023-01-27T18:41:38.040Z,98719.75
2023-01-27T18:44:05.209Z,98723.97
2023-01-27T18:46:32.258Z,98721.69
2023-01-27T18:48:59.938Z,98732.16
2023-01-27T18:51:27.177Z,98721.38
2023-01-27T18:53:54.257Z,98721.81
2023-01-27T18:56:21.621Z,98717.94
2023-01-27T18:58:48.674Z,98719.13
2023-01-27T19:01:21.885Z,98719.13
2023-01-27T19:03:50.791Z,98723.00
2023-01-27T19:06:18.302Z,98721.50
2023-01-27T19:08:45.436Z,98721.50
2023-01-27T19:11:15.903Z,98722.38
2023-01-27T19:13:46.432Z,98725.81
2023-01-27T19:16:15.384Z,98727.44
2023-01-27T19:18:43.031Z,98732.38
2023-01-27T19:21:15.049Z,98730.44
2023-01-27T19:23:44.468Z,98732.72
2023-01-27T19:26:16.571Z,98725.41
2023-01-27T19:28:44.206Z,98736.16
2023-01-27T19:31:11.375Z,98735.06
2023-01-27T19:33:38.923Z,98725.81
2023-01-27T19:36:15.808Z,98734.97
2023-01-27T19:38:42.979Z,98732.28
2023-01-27T19:41:10.942Z,98740.34
2023-01-27T19:43:38.141Z,98737.66
2023-01-27T19:46:16.520Z,98743.78
2023-01-27T19:48:44.565Z,98735.81
2023-01-27T19:51:11.843Z,98739.25
2023-01-27T19:53:38.970Z,98740.88
2023-01-27T19:56:29.224Z,98742.38
2023-01-27T19:58:56.296Z,98746.56
2023-01-27T20:01:24.961Z,98748.97
2023-01-27T20:03:52.633Z,98747.78
2023-01-27T20:06:25.206Z,98747.00
2023-01-27T20:08:56.174Z,98751.66
2023-01-27T20:11:43.323Z,98762.84
2023-01-27T20:14:15.768Z,98761.78
2023-01-27T20:16:43.117Z,98758.97
2023-01-27T20:19:14.857Z,98762.72
2023-01-27T20:21:43.262Z,98763.06
2023-01-27T20:24:18.356Z,98756.59
2023-01-27T20:26:45.790Z,98771.13
2023-01-27T20:29:13.992Z,98769.72
2023-01-27T20:31:41.257Z,98779.75
2023-01-27T20:34:08.466Z,98775.13
2023-01-27T20:36:35.629Z,98766.59
2023-01-27T20:39:04.559Z,98769.59
2023-01-27T20:41:31.610Z,98773.84
2023-01-27T20:44:01.582Z,98767.25
2023-01-27T20:46:29.775Z,98768.97
2023-01-27T20:48:58.635Z,98772.75
2023-01-27T20:51:25.746Z,98779.00
2023-01-27T20:53:53.547Z,98777.38
2023-01-27T20:56:22.672Z,98765.09
2023-01-27T20:58:50.597Z,98769.41
2023-01-27T21:01:22.651Z,98765.53
2023-01-27T21:03:50.563Z,98768.97
2023-01-27T21:06:19.899Z,98767.78
2023-01-27T21:08:50.536Z,98776.31
2023-01-27T21:11:19.678Z,98778.25
2023-01-27T21:13:47.742Z,98782.31
2023-01-27T21:16:15.239Z,98785.75
2023-01-27T21:18:42.443Z,98777.69
2023-01-27T21:21:21.349Z,98771.53
2023-01-27T21:23:48.419Z,98782.75
2023-01-27T21:26:15.444Z,98787.38
2023-01-27T21:28:42.534Z,98790.50
2023-01-27T21:31:12.146Z,98781.69
2023-01-27T21:33:39.834Z,98786.31
2023-01-27T21:36:10.618Z,98780.19
2023-01-27T21:38:38.874Z,98780.50
2023-01-27T21:41:07.785Z,98792.31
2023-01-27T21:43:54.213Z,98785.00
2023-01-27T21:46:21.316Z,98786.53
2023-01-27T21:48:48.685Z,98786.94
2023-01-27T21:51:15.894Z,98789.97
2023-01-27T21:53:42.957Z,98785.44
2023-01-27T21:56:10.896Z,98787.69
2023-01-27T21:58:38.006Z,98785.00
2023-01-27T22:01:09.624Z,98788.78
2023-01-27T22:03:37.748Z,98782.22
2023-01-27T22:06:08.835Z,98781.91
2023-01-27T22:08:36.405Z,98789.00
2023-01-27T22:11:11.690Z,98785.56
2023-01-27T22:13:39.577Z,98778.56
2023-01-27T22:16:07.264Z,98776.19
2023-01-27T22:18:34.338Z,98773.47
2023-01-27T22:21:02.237Z,98779.63
2023-01-27T22:23:29.356Z,98779.63
2023-01-27T22:25:56.439Z,98782.75
2023-01-27T22:28:24.322Z,98775.00
2023-01-27T22:30:51.748Z,98772.31
2023-01-27T22:33:19.090Z,98774.16
2023-01-27T22:35:46.176Z,98779.53
2023-01-27T22:38:13.404Z,98777.59
2023-01-27T22:40:40.430Z,98771.78
2023-01-27T22:43:10.646Z,98766.69
2023-01-27T22:45:38.784Z,98779.41
2023-01-27T22:48:06.072Z,98776.09
2023-01-27T22:50:33.127Z,98785.66
2023-01-27T22:53:00.281Z,98780.59
2023-01-27T22:55:27.333Z,98780.91
2023-01-27T22:57:54.378Z,98784.34
2023-01-27T23:00:21.477Z,98785.53
2023-01-27T23:02:48.520Z,98787.81
2023-01-27T23:05:16.091Z,98783.59
2023-01-27T23:07:43.391Z,98781.56
2023-01-27T23:10:10.766Z,98776.94
2023-01-27T23:12:37.787Z,98769.28
2023-01-27T23:15:05.348Z,98765.50
2023-01-27T23:17:32.403Z,98768.97
2023-01-27T23:19:59.458Z,98769.72
2023-01-27T23:22:26.546Z,98773.19
2023-01-27T23:24:53.645Z,98771.66
2023-01-27T23:27:20.721Z,98771.53
2023-01-27T23:29:47.746Z,98767.66
2023-01-27T23:32:14.801Z,98762.94
2023-01-27T23:34:41.936Z,98767.13
2023-01-27T23:37:08.964Z,98777.56
2023-01-27T23:39:36.038Z,98769.16
2023-01-27T23:42:03.136Z,98769.59
2023-01-27T23:44:30.328Z,98770.78
2023-01-27T23:46:57.445Z,98772.00
2023-01-27T23:49:24.531Z,98768.41
2023-01-27T23:51:51.652Z,98766.47
2023-01-27T23:54:18.779Z,98764.09
2023-01-27T23:56:45.896Z,98772.53
2023-01-27T23:59:13.272Z,98774.03
